Pagrindinis puslapis
METAR-TAF:

METAR-TAF

Oro uostai :

Capo Mele

Andora, Italija

platuma: 43-57N, ilguma: 008-10E, Aukštis: 220 m

Dabartinis oras

Ataskaita buvo paskelbta 58 minutes, ne 17:55 UTC
Vėjas 8 kt iš Šiaurės
Temperatūra 22°C
Drėgmė 65%
Slėgis 1016 hPa
Matomumas 10 km arba daugiau
nėra debesų žemiau 1500 m ir nėra kamuolinių lietaus debesų

METAR: LIMU 191755Z 36008KT CAVOK 22/15 Q1016 RMK SCT FEW070 SCT200 QUK 2 QUL 1 E VIS MAR 25 KM VIS MIN 9999

Laikas: 20:53 (18:53 UTC)


TAF: trūkstamas

Orai ataskaitas ir orų prognozės (METAR, TAF).

turimą stotys yra geltonos ir raudonos taškus žemėlapyje.

Perkelti pele per norėdami pamatyti stoties vardą.

Tada spustelėkite, norėdami matyti oro stebėjimo ir prognozės.

Norėdami pakeisti žemėlapį: spustelėkite ant žalios mygtukų su juodo kryžiaus žemyn,; žalią mygtuką su brūkšneliu, jei norite nutolinti; arba žalių rodyklių gretimoms žemėlapius.


METAR-TAF: